LFRQ/UIP METAR and TAF weather

Enter ICAO airport designator
Station Type Date Time Source
LFRQ METAR 2020/04/03 23:00 UTC NOAA

LFRQ 032300Z AUTO 06004KT CAVOK 06/04 Q1019


Station Type Date Time Source
LFRQ Decoded METAR 2020/04/03 23:00 UTC NOAA

Quimper, France (LFRQ) 47-58N 004-10W 94M
Apr 03, 2020 - 07:00 PM EDT / 2020.04.03 2300 UTC
Wind: from the ENE (060 degrees) at 5 MPH (4 KT):0
Visibility: greater than 7 mile(s):0
Temperature: 42 F (6 C)
Dew Point: 39 F (4 C)
Relative Humidity: 86%
Pressure (altimeter): 30.09 in. Hg (1019 hPa)
ob: LFRQ 032300Z AUTO 06004KT CAVOK 06/04 Q1019
cycle: 23

Station Type Date Time Source
LFRQ TAF 2020/03/24 22:15 UTC NOAA

TAF
AMD TAF
AMD LFRQ 242209Z 2422/2506 CNL

Example: see airport list